Avalon School, Santa Catalina Island Weather observations

Data are for 10 minute period ending at time listed.
 Day   Time   Solar   Ave.   Ave.  Ave.  Vector    Max.   Stn.    Total
  of    of     Rad.   Air    Rel.  Wind   Wind     Wind   Baro.  Precip.
Year   Day            Temp.  Hum.  Speed  Dir.     Gust   Pres.         
2015   (PST)   W/m2    F      %     mph   deg.      mph    mb.     in.  
------------------------------------------------------------------------
 142    4:50    2.0    57   84.4     2    222.5     5.4    999.0   0.00  
 142    5:00    5.0    57   83.4     2    255.0     3.0    999.0   0.00  
 142    5:10    9.0    57   84.0     3    262.7     8.4    999.0   0.00  
 142    5:20   16.0    58   81.3     3    251.8     6.0    999.0   0.00  
 142    5:30   33.0    59   80.5     2    258.0     6.0    999.0   0.00  
 142    5:40   76.0    60   78.8     3    232.3     7.8    999.0   0.00  
 142    5:50  105.0    61   76.3     2    304.8     9.0    999.0   0.00  
 142    6:00  127.0    62   75.7     2    272.9     9.6    999.0   0.00  
 142    6:10  155.0    63   73.3     3     82.7     6.6    999.0   0.00  
 142    6:20  197.0    63   72.9     2     51.3     4.8    999.0   0.00  
 142    6:30  239.0    64   71.3     3    169.1    10.2    999.0   0.00  
 142    6:40  259.0    64   70.5     4    184.7     7.8    999.0   0.00  
 142    6:50  294.0    64   70.2     3    244.1     7.2    999.0   0.00  
 142    7:00  300.0    66   66.6     3     83.7     7.8    999.0   0.00  
 142    7:10  275.0    65   67.0     3    302.8     7.2    999.0   0.00  
 142    7:20  322.0    64   67.6     3    340.2     8.4    999.0   0.00  
 142    7:30  391.0    64   66.5     4    287.5    10.8    999.0   0.00  
 142    7:40  519.0    65   67.3     6     72.0    13.1    999.0   0.00  
 142    7:50  273.0    63   73.5     8     90.6    13.7    999.0   0.00  
 142    8:00  214.0    63   75.0     7     73.8    13.7    999.0   0.00  
 142    8:10  267.0    63   74.5     3    268.9     6.0    999.0   0.00  
 142    8:20  500.0    65   69.6     4     88.8     9.6    999.0   0.00  
 142    8:30  624.0    65   70.7     7     84.0    13.7    999.0   0.00  
 142    8:40  626.0    66   66.1     4    269.3     7.8    999.0   0.00  
 142    8:50  269.0    66   66.3     5     83.9    11.3    999.0   0.00  
 142    9:00  563.0    65   68.8     4     27.9     9.6    999.0   0.00  
 142    9:10  592.0    65   68.6     6     80.0    12.5    999.0   0.00  
 142    9:20  317.0    65   68.8     6     87.1    11.3    999.0   0.00  
 142    9:30  408.0    65   69.6     5    174.1    11.3    999.0   0.00  
 142    9:40  677.0    66   67.9     4    122.5    10.2    999.0   0.00  
 142    9:50  474.0    66   66.9     6     76.9     9.6    999.0   0.00  
 142   10:00  662.0    67   65.9     5     53.4    10.8    999.0   0.00  
 142   10:10  649.0    67   61.2     3    242.4     9.6    999.0   0.00  
 142   10:20  500.0    67   63.8     4    194.2     9.0    999.0   0.00  
 142   10:30  717.0    67   65.3     5    120.9     9.6    999.0   0.00  
 142   10:40  508.0    66   67.4     6     42.3    10.2    999.0   0.00  
 142   10:50  409.0    66   68.3     5    108.8    11.9    999.0   0.00  
 142   11:00  328.0    65   69.1     4    207.8    10.8    999.0   0.00  
 142   11:10  916.0    66   68.7     6     39.9    13.1    999.0   0.00  
 142   11:20  689.0    67   67.7     5    228.9    10.2    999.0   0.00  
 142   11:30  822.0    68   65.2     4    195.1    13.1    999.0   0.00  
 142   11:40  846.0    67   67.3     5     51.0    11.3    999.0   0.00  
 142   11:50  449.0    66   67.8     4    151.1     9.0    999.0   0.00  
 142   12:00  751.0    66   68.5     6    323.4    16.7    999.0   0.00  
 142   12:10  949.0    67   66.1     5    233.3    12.5    999.0   0.00  
 142   12:20  744.0    66   67.2     5    200.9    11.3    999.0   0.00  
 142   12:30  887.0    66   66.8     6    122.0    10.8    999.0   0.00  
 142   12:40  891.0    67   66.3     5    355.5    10.2    999.0   0.00  
 142   12:50  841.0    68   64.5     6    171.1    10.8    999.0   0.00  
 142   13:00  726.0    67   66.2     7    188.5    16.7    999.0   0.00  
 142   13:10  398.0    66   69.0     5    113.6    10.8    999.0   0.00  
 142   13:20  355.0    65   70.2     5    172.2    11.9    999.0   0.00  
 142   13:30  246.0    64   72.7     5    299.8    11.3    999.0   0.00  
 142   13:40  479.0    64   72.7     6     60.9    11.3    999.0   0.00  
 142   13:50  565.0    65   71.4     6     61.5    16.1    999.0   0.00  
 142   14:00  530.0    65   71.7     4    354.8     9.0    999.0   0.00  
 142   14:10  334.0    64   73.6     5     54.2    11.9    999.0   0.00  
 142   14:20  668.0    65   72.7     4    166.6     8.4    999.0   0.00  
 142   14:30  715.0    66   70.6     4    314.7    10.2    999.0   0.00  
 142   14:40  500.0    66   71.2     6     79.8    11.3    999.0   0.00  
 142   14:50  661.0    66   71.9     6     80.8    11.3    999.0   0.00  
 142   15:00  678.0    65   71.9     8     87.9    16.1    999.0   0.00  
 142   15:10  677.0    66   71.6     5     80.4    11.3    999.0   0.00  
 142   15:20  591.0    66   70.2     6     79.7    12.5    999.0   0.00  
 142   15:30  481.0    66   70.9     5     78.2    11.9    999.0   0.00  
 142   15:40  459.0    66   71.5     4    359.9     7.8    999.0   0.00  
 142   15:50  455.0    66   70.5     4     80.4     9.0    999.0   0.00  
 142   16:00  307.0    66   70.8     4    171.6     9.0    999.0   0.00  
 142   16:10  367.0    66   71.1     3    150.1     7.8    999.0   0.00  
 142   16:20  297.0    65   71.4     4    180.5     8.4    999.0   0.00  
 142   16:30  181.0    64   73.3     3    108.5     7.2    999.0   0.00  
 142   16:40  171.0    64   74.2     4     91.8     6.6    999.0   0.00  
 142   16:50  159.0    65   74.0     3    138.6     7.8    999.0   0.00  
 142   17:00  173.0    64   74.8     3    148.9     5.4    999.0   0.00  
 142   17:10  155.0    64   75.3     3     82.9     6.6    999.0   0.00  
 142   17:20  127.0    64   75.3     3     43.5     6.0    999.0   0.00  
 142   17:30  118.0    64   74.4     2    184.2     3.6    999.0   0.00  
 142   17:40   86.0    64   74.7     3    281.8     6.0    999.0   0.00  
 142   17:50   72.0    64   74.5     4    302.1     8.4    999.0   0.00  
 142   18:00   56.0    63   74.6     3    309.1     6.6    999.0   0.00  
 142   18:10   45.0    63   75.2     3    327.2     6.6    999.0   0.00  
 142   18:20   40.0    63   76.2     2    192.2     4.8    999.0   0.00  
 142   18:30   23.0    63   76.1     1     97.5     4.2    999.0   0.00  
 142   18:40   10.0    63   77.0     2    322.5     4.2    999.0   0.00  
 142   18:50    5.0    62   77.2     3    251.5     5.4    999.0   0.00  
 142   19:00    2.0    62   77.6     1    261.5     3.6    999.0   0.00  
 142   19:10    1.0    62   78.3     2    247.3     3.6    999.0   0.00  
 142   19:20    0.0    62   79.0     1    204.0     4.2    999.0   0.00  
 142   19:30    0.0    61   79.7     0    262.6     2.4    999.0   0.00  
 142   19:40    0.0    61   80.4     0    248.4     2.4    999.0   0.00  
 142   19:50    0.0    60   81.6     1    189.0     4.8    999.0   0.00  
 142   20:00    0.0    60   81.3     0    208.0     3.6    999.0   0.00  
 142   20:10    0.0    60   81.8     1    269.2     2.4    999.0   0.00  
 142   20:20    0.0    60   82.3     1    272.4     3.6    999.0   0.00  
 142   20:30    0.0    60   82.7     1    272.7     3.0    999.0   0.00  
 142   20:40    0.0    60   83.2     0    250.8     1.8    999.0   0.00  
 142   20:50    0.0    60   83.5     0    146.7     1.8    999.0   0.00  
 142   21:00    0.0    59   84.0     0    272.8     1.2    999.0   0.00  
 142   21:10    0.0    59   84.6     0    243.5     1.8    999.0   0.00  
 142   21:20    0.0    58   85.1     0    244.2     1.8    999.0   0.00  
 142   21:30    0.0    59   85.5     1    271.1     2.4    999.0   0.00  
 142   21:40    0.0    59   85.4     0    213.4     3.0    999.0   0.00  
 142   21:50    0.0    59   85.1     0    188.4     2.4    999.0   0.00  
 142   22:00    0.0    59   85.1     1    269.6     2.4    999.0   0.00  
 142   22:10    0.0    58   85.5     1    263.4     2.4    999.0   0.00  
 142   22:20    0.0    58   85.9     0    267.3     1.8    999.0   0.00  
 142   22:30    0.0    57   86.3     0    274.1     1.8    999.0   0.00  
 142   22:40    0.0    57   87.1     0      0.0     0.0    999.0   0.00  
 142   22:50    0.0    57   87.4     1    266.0     2.4    999.0   0.00  
 142   23:00    0.0    57   87.0     0    271.2     1.2    999.0   0.00  
 142   23:10    0.0    56   87.3     1    254.2     3.6    999.0   0.00  
 142   23:20    0.0    58   86.9     1    146.1     3.6    999.0   0.00  
 142   23:30    0.0    59   85.3     1    140.5     4.8    999.0   0.00  
 142   23:40    0.0    58   84.9     1    273.4     3.0    999.0   0.00  
 142   23:50    0.0    58   85.9     1    286.6     3.6    999.0   0.00  
 143    0:00    0.0    59   85.4     1     77.5     4.2    999.0   0.00  
 143    0:10    0.0    58   84.8     0    228.9     1.8    999.0   0.00  
 143    0:20    0.0    58   85.2     0    258.7     1.8    999.0   0.00  
 143    0:30    0.0    58   85.6     0      0.0     0.0    999.0   0.00  
 143    0:40    0.0    57   86.1     0    214.2     1.8    999.0   0.00  
 143    0:50    0.0    56   86.7     0    275.5     2.4    999.0   0.00  
 143    1:00    0.0    56   87.6     0    258.7     2.4    999.0   0.00  
 143    1:10    0.0    56   87.9     0      0.0     0.0    999.0   0.00  
 143    1:20    0.0    55   88.3     0    255.4     1.2    999.0   0.00  
 143    1:30    0.0    55   88.9     0    262.7     1.8    999.0   0.00  
 143    1:40    0.0    55   89.2     0    275.0     1.2    999.0   0.00  
 143    1:50    0.0    55   89.4     0    306.7     1.2    999.0   0.00  
 143    2:00    0.0    55   89.6     0    268.3     1.2    999.0   0.00  
 143    2:10    0.0    55   89.9     1    274.5     3.0    999.0   0.00  
 143    2:20    0.0    55   89.8     0    248.3     2.4    999.0   0.00  
 143    2:30    0.0    54   90.1     2    276.7     3.0    999.0   0.00  
 143    2:40    0.0    55   90.2     0    269.3     2.4    999.0   0.00  
 143    2:50    0.0    54   90.2     1    266.0     2.4    999.0   0.00  
 143    3:00    0.0    55   90.2     1    263.9     2.4    999.0   0.00  
 143    3:10    0.0    55   90.2     0    316.8     1.2    999.0   0.00  
 143    3:20    0.0    55   90.0     0    259.0     1.8    999.0   0.00  
 143    3:30    0.0    55   90.0     1    262.4     2.4    999.0   0.00  
 143    3:40    0.0    55   89.8     1    273.7     3.0    999.0   0.00  
 143    3:50    0.0    55   89.9     0    270.8     1.8    999.0   0.00  
 143    4:00    0.0    54   90.2     0    273.4     1.8    999.0   0.00  
 143    4:10    0.0    55   90.1     1    266.5     3.0    999.0   0.00  
 143    4:20    0.0    55   90.0     2    259.8     3.6    999.0   0.00  
 143    4:30    0.0    55   90.1     0    255.4     1.8    999.0   0.00  
 143    4:40    1.0    55   90.0     2    261.7     3.6    999.0   0.00  

Return to Avalon School graphs page.


Western Regional Climate Center,wrcc@dri.edu